sensor_id;sensor_type;location;lat;lon;timestamp;P1;durP1;ratioP1;P2;durP2;ratioP2
10100;SDS011;5090;51.258;4.436;2023-12-20T00:02:01;16.40;;;2.57;;
10100;SDS011;5090;51.258;4.436;2023-12-20T00:04:29;11.90;;;2.40;;
10100;SDS011;5090;51.258;4.436;2023-12-20T00:06:58;12.57;;;2.40;;
10100;SDS011;5090;51.258;4.436;2023-12-20T00:12:27;15.67;;;2.50;;
10100;SDS011;5090;51.258;4.436;2023-12-20T00:14:55;10.10;;;2.13;;
10100;SDS011;5090;51.258;4.436;2023-12-20T00:17:24;15.37;;;2.33;;
10100;SDS011;5090;51.258;4.436;2023-12-20T00:19:52;8.13;;;2.33;;
10100;SDS011;5090;51.258;4.436;2023-12-20T00:22:20;13.23;;;2.43;;
10100;SDS011;5090;51.258;4.436;2023-12-20T00:24:48;10.13;;;2.33;;
10100;SDS011;5090;51.258;4.436;2023-12-20T00:27:16;6.83;;;1.97;;
10100;SDS011;5090;51.258;4.436;2023-12-20T00:29:44;13.33;;;2.50;;
10100;SDS011;5090;51.258;4.436;2023-12-20T00:32:13;8.83;;;2.00;;
10100;SDS011;5090;51.258;4.436;2023-12-20T00:34:41;12.13;;;2.60;;
10100;SDS011;5090;51.258;4.436;2023-12-20T00:37:09;6.57;;;2.67;;
10100;SDS011;5090;51.258;4.436;2023-12-20T00:42:22;9.80;;;2.70;;
10100;SDS011;5090;51.258;4.436;2023-12-20T00:44:51;15.90;;;2.70;;
10100;SDS011;5090;51.258;4.436;2023-12-20T00:47:19;16.30;;;2.50;;
10100;SDS011;5090;51.258;4.436;2023-12-20T00:49:47;12.93;;;2.90;;
10100;SDS011;5090;51.258;4.436;2023-12-20T00:52:15;18.87;;;3.23;;
10100;SDS011;5090;51.258;4.436;2023-12-20T00:54:44;13.17;;;3.23;;
10100;SDS011;5090;51.258;4.436;2023-12-20T00:57:12;14.40;;;2.70;;
10100;SDS011;5090;51.258;4.436;2023-12-20T00:59:40;10.73;;;3.70;;
10100;SDS011;5090;51.258;4.436;2023-12-20T01:02:08;14.33;;;3.47;;
10100;SDS011;5090;51.258;4.436;2023-12-20T01:04:36;18.13;;;3.90;;
10100;SDS011;5090;51.258;4.436;2023-12-20T01:07:05;15.33;;;3.50;;
10100;SDS011;5090;51.258;4.436;2023-12-20T01:09:34;14.97;;;3.43;;
10100;SDS011;5090;51.258;4.436;2023-12-20T01:12:03;16.63;;;3.77;;
10100;SDS011;5090;51.258;4.436;2023-12-20T01:14:31;17.83;;;4.23;;
10100;SDS011;5090;51.258;4.436;2023-12-20T01:16:59;16.27;;;3.67;;
10100;SDS011;5090;51.258;4.436;2023-12-20T01:19:27;16.60;;;3.90;;
10100;SDS011;5090;51.258;4.436;2023-12-20T01:21:55;9.77;;;3.10;;
10100;SDS011;5090;51.258;4.436;2023-12-20T01:24:24;14.13;;;3.90;;
10100;SDS011;5090;51.258;4.436;2023-12-20T01:26:52;13.13;;;3.47;;
10100;SDS011;5090;51.258;4.436;2023-12-20T01:29:20;15.07;;;3.83;;
10100;SDS011;5090;51.258;4.436;2023-12-20T01:31:48;15.30;;;3.87;;
10100;SDS011;5090;51.258;4.436;2023-12-20T01:34:17;14.20;;;3.93;;
10100;SDS011;5090;51.258;4.436;2023-12-20T01:36:44;10.50;;;3.80;;
10100;SDS011;5090;51.258;4.436;2023-12-20T01:39:13;18.93;;;4.37;;
10100;SDS011;5090;51.258;4.436;2023-12-20T01:41:41;17.67;;;3.43;;
10100;SDS011;5090;51.258;4.436;2023-12-20T01:44:09;13.57;;;3.50;;
10100;SDS011;5090;51.258;4.436;2023-12-20T01:46:37;19.07;;;4.70;;
10100;SDS011;5090;51.258;4.436;2023-12-20T01:49:06;16.97;;;4.07;;
10100;SDS011;5090;51.258;4.436;2023-12-20T01:51:34;15.67;;;3.73;;
10100;SDS011;5090;51.258;4.436;2023-12-20T01:54:02;13.93;;;3.80;;
10100;SDS011;5090;51.258;4.436;2023-12-20T01:56:30;14.13;;;3.43;;
10100;SDS011;5090;51.258;4.436;2023-12-20T01:58:58;19.53;;;3.33;;
10100;SDS011;5090;51.258;4.436;2023-12-20T02:01:26;13.07;;;3.50;;
10100;SDS011;5090;51.258;4.436;2023-12-20T02:03:55;15.40;;;3.47;;
10100;SDS011;5090;51.258;4.436;2023-12-20T02:06:23;16.60;;;3.40;;
10100;SDS011;5090;51.258;4.436;2023-12-20T02:08:51;19.13;;;3.13;;
10100;SDS011;5090;51.258;4.436;2023-12-20T02:11:20;19.33;;;3.50;;
10100;SDS011;5090;51.258;4.436;2023-12-20T02:13:48;19.00;;;3.37;;
10100;SDS011;5090;51.258;4.436;2023-12-20T02:16:16;18.23;;;3.60;;
10100;SDS011;5090;51.258;4.436;2023-12-20T02:18:44;14.33;;;3.77;;
10100;SDS011;5090;51.258;4.436;2023-12-20T02:21:12;30.07;;;4.00;;
10100;SDS011;5090;51.258;4.436;2023-12-20T02:23:41;17.13;;;3.43;;
10100;SDS011;5090;51.258;4.436;2023-12-20T02:26:09;19.93;;;3.67;;
10100;SDS011;5090;51.258;4.436;2023-12-20T02:28:37;17.17;;;3.13;;
10100;SDS011;5090;51.258;4.436;2023-12-20T02:31:05;17.50;;;3.23;;
10100;SDS011;5090;51.258;4.436;2023-12-20T02:33:33;13.93;;;3.43;;
10100;SDS011;5090;51.258;4.436;2023-12-20T02:36:01;17.10;;;3.80;;
10100;SDS011;5090;51.258;4.436;2023-12-20T02:38:30;20.70;;;3.90;;
10100;SDS011;5090;51.258;4.436;2023-12-20T02:40:58;22.03;;;4.43;;
10100;SDS011;5090;51.258;4.436;2023-12-20T02:43:26;14.57;;;4.07;;
10100;SDS011;5090;51.258;4.436;2023-12-20T02:45:54;18.17;;;3.60;;
10100;SDS011;5090;51.258;4.436;2023-12-20T02:48:22;13.63;;;3.43;;
10100;SDS011;5090;51.258;4.436;2023-12-20T02:50:51;19.07;;;3.67;;
10100;SDS011;5090;51.258;4.436;2023-12-20T02:53:19;13.20;;;3.20;;
10100;SDS011;5090;51.258;4.436;2023-12-20T02:55:47;13.77;;;3.70;;
10100;SDS011;5090;51.258;4.436;2023-12-20T02:58:15;15.67;;;4.23;;
10100;SDS011;5090;51.258;4.436;2023-12-20T03:00:43;20.77;;;3.27;;
10100;SDS011;5090;51.258;4.436;2023-12-20T03:03:11;17.13;;;4.07;;
10100;SDS011;5090;51.258;4.436;2023-12-20T03:05:40;13.50;;;3.77;;
10100;SDS011;5090;51.258;4.436;2023-12-20T03:08:08;17.97;;;3.80;;
10100;SDS011;5090;51.258;4.436;2023-12-20T03:10:36;13.77;;;3.30;;
10100;SDS011;5090;51.258;4.436;2023-12-20T03:13:04;20.07;;;3.70;;
10100;SDS011;5090;51.258;4.436;2023-12-20T03:15:33;16.97;;;4.03;;
10100;SDS011;5090;51.258;4.436;2023-12-20T03:18:01;17.73;;;4.17;;
10100;SDS011;5090;51.258;4.436;2023-12-20T03:20:29;22.93;;;4.87;;
10100;SDS011;5090;51.258;4.436;2023-12-20T03:22:57;21.83;;;4.40;;
10100;SDS011;5090;51.258;4.436;2023-12-20T03:25:26;20.33;;;4.23;;
10100;SDS011;5090;51.258;4.436;2023-12-20T03:27:54;12.63;;;4.40;;
10100;SDS011;5090;51.258;4.436;2023-12-20T03:30:22;20.70;;;4.13;;
10100;SDS011;5090;51.258;4.436;2023-12-20T03:32:50;15.67;;;3.97;;
10100;SDS011;5090;51.258;4.436;2023-12-20T03:35:18;10.60;;;3.50;;
10100;SDS011;5090;51.258;4.436;2023-12-20T03:37:47;15.00;;;4.17;;
10100;SDS011;5090;51.258;4.436;2023-12-20T03:40:15;14.20;;;4.37;;
10100;SDS011;5090;51.258;4.436;2023-12-20T03:42:43;18.97;;;4.53;;
10100;SDS011;5090;51.258;4.436;2023-12-20T03:45:11;20.93;;;4.67;;
10100;SDS011;5090;51.258;4.436;2023-12-20T03:47:39;18.43;;;4.20;;
10100;SDS011;5090;51.258;4.436;2023-12-20T03:50:07;13.13;;;5.03;;
10100;SDS011;5090;51.258;4.436;2023-12-20T03:52:36;17.50;;;4.43;;
10100;SDS011;5090;51.258;4.436;2023-12-20T03:55:04;18.30;;;4.60;;
10100;SDS011;5090;51.258;4.436;2023-12-20T03:57:33;17.80;;;5.00;;
10100;SDS011;5090;51.258;4.436;2023-12-20T04:00:01;18.97;;;4.87;;
10100;SDS011;5090;51.258;4.436;2023-12-20T04:02:29;12.50;;;4.40;;
10100;SDS011;5090;51.258;4.436;2023-12-20T04:04:57;17.00;;;4.13;;
10100;SDS011;5090;51.258;4.436;2023-12-20T04:07:25;26.43;;;5.23;;
10100;SDS011;5090;51.258;4.436;2023-12-20T04:09:53;23.93;;;4.83;;
10100;SDS011;5090;51.258;4.436;2023-12-20T04:12:22;18.20;;;5.20;;
10100;SDS011;5090;51.258;4.436;2023-12-20T04:14:50;19.77;;;5.00;;
10100;SDS011;5090;51.258;4.436;2023-12-20T04:17:18;17.57;;;4.90;;
10100;SDS011;5090;51.258;4.436;2023-12-20T04:19:46;18.90;;;4.97;;
10100;SDS011;5090;51.258;4.436;2023-12-20T04:22:14;16.30;;;4.23;;
10100;SDS011;5090;51.258;4.436;2023-12-20T04:24:42;22.93;;;4.60;;
10100;SDS011;5090;51.258;4.436;2023-12-20T04:27:11;20.87;;;4.80;;
10100;SDS011;5090;51.258;4.436;2023-12-20T04:29:39;15.37;;;4.83;;
10100;SDS011;5090;51.258;4.436;2023-12-20T04:32:07;17.67;;;4.07;;
10100;SDS011;5090;51.258;4.436;2023-12-20T04:34:36;17.50;;;4.03;;
10100;SDS011;5090;51.258;4.436;2023-12-20T04:37:03;25.83;;;4.70;;
10100;SDS011;5090;51.258;4.436;2023-12-20T04:39:32;19.83;;;4.07;;
10100;SDS011;5090;51.258;4.436;2023-12-20T04:42:00;17.17;;;4.00;;
10100;SDS011;5090;51.258;4.436;2023-12-20T04:44:28;19.97;;;5.10;;
10100;SDS011;5090;51.258;4.436;2023-12-20T04:46:56;18.87;;;4.30;;
10100;SDS011;5090;51.258;4.436;2023-12-20T04:49:24;20.03;;;4.73;;
10100;SDS011;5090;51.258;4.436;2023-12-20T04:51:53;12.93;;;3.90;;
10100;SDS011;5090;51.258;4.436;2023-12-20T04:54:21;25.37;;;4.03;;
10100;SDS011;5090;51.258;4.436;2023-12-20T04:56:49;21.83;;;4.70;;
10100;SDS011;5090;51.258;4.436;2023-12-20T04:59:17;19.00;;;4.30;;
10100;SDS011;5090;51.258;4.436;2023-12-20T05:01:45;19.77;;;3.40;;
10100;SDS011;5090;51.258;4.436;2023-12-20T05:04:13;15.23;;;4.23;;
10100;SDS011;5090;51.258;4.436;2023-12-20T05:06:42;25.63;;;4.17;;
10100;SDS011;5090;51.258;4.436;2023-12-20T05:09:10;14.33;;;3.63;;
10100;SDS011;5090;51.258;4.436;2023-12-20T05:11:38;16.90;;;3.80;;
10100;SDS011;5090;51.258;4.436;2023-12-20T05:14:07;21.73;;;4.20;;
10100;SDS011;5090;51.258;4.436;2023-12-20T05:16:35;16.07;;;3.43;;
10100;SDS011;5090;51.258;4.436;2023-12-20T05:19:03;14.43;;;3.77;;
10100;SDS011;5090;51.258;4.436;2023-12-20T05:21:31;15.07;;;3.50;;
10100;SDS011;5090;51.258;4.436;2023-12-20T05:24:00;13.63;;;3.57;;
10100;SDS011;5090;51.258;4.436;2023-12-20T05:26:28;16.17;;;3.00;;
10100;SDS011;5090;51.258;4.436;2023-12-20T05:28:56;28.30;;;3.70;;
10100;SDS011;5090;51.258;4.436;2023-12-20T05:31:24;14.27;;;3.87;;
10100;SDS011;5090;51.258;4.436;2023-12-20T05:33:52;22.60;;;4.50;;
10100;SDS011;5090;51.258;4.436;2023-12-20T05:36:21;24.30;;;4.20;;
10100;SDS011;5090;51.258;4.436;2023-12-20T05:38:49;25.03;;;4.00;;
10100;SDS011;5090;51.258;4.436;2023-12-20T05:41:17;22.27;;;4.07;;
10100;SDS011;5090;51.258;4.436;2023-12-20T05:43:45;24.80;;;3.53;;
10100;SDS011;5090;51.258;4.436;2023-12-20T05:46:14;19.17;;;3.90;;
10100;SDS011;5090;51.258;4.436;2023-12-20T05:48:42;17.40;;;3.70;;
10100;SDS011;5090;51.258;4.436;2023-12-20T05:51:11;15.50;;;4.20;;
10100;SDS011;5090;51.258;4.436;2023-12-20T05:53:39;17.07;;;4.30;;
10100;SDS011;5090;51.258;4.436;2023-12-20T05:56:14;16.57;;;3.83;;
10100;SDS011;5090;51.258;4.436;2023-12-20T05:58:42;13.17;;;3.50;;
10100;SDS011;5090;51.258;4.436;2023-12-20T06:01:11;22.03;;;4.37;;
10100;SDS011;5090;51.258;4.436;2023-12-20T06:03:41;19.37;;;4.67;;
10100;SDS011;5090;51.258;4.436;2023-12-20T06:06:08;16.00;;;4.60;;
10100;SDS011;5090;51.258;4.436;2023-12-20T06:08:36;17.93;;;3.97;;
10100;SDS011;5090;51.258;4.436;2023-12-20T06:11:04;17.40;;;3.97;;
10100;SDS011;5090;51.258;4.436;2023-12-20T06:13:32;20.90;;;4.20;;
10100;SDS011;5090;51.258;4.436;2023-12-20T06:16:01;18.07;;;5.00;;
10100;SDS011;5090;51.258;4.436;2023-12-20T06:18:29;20.77;;;4.30;;
10100;SDS011;5090;51.258;4.436;2023-12-20T06:20:57;16.63;;;4.27;;
10100;SDS011;5090;51.258;4.436;2023-12-20T06:23:25;15.83;;;4.23;;
10100;SDS011;5090;51.258;4.436;2023-12-20T06:25:54;16.70;;;4.50;;
10100;SDS011;5090;51.258;4.436;2023-12-20T06:28:22;19.30;;;4.00;;
10100;SDS011;5090;51.258;4.436;2023-12-20T06:30:50;25.97;;;3.77;;
10100;SDS011;5090;51.258;4.436;2023-12-20T06:33:18;17.53;;;4.60;;
10100;SDS011;5090;51.258;4.436;2023-12-20T06:35:47;18.47;;;4.63;;
10100;SDS011;5090;51.258;4.436;2023-12-20T06:38:16;17.47;;;4.33;;
10100;SDS011;5090;51.258;4.436;2023-12-20T06:40:43;22.00;;;4.40;;
10100;SDS011;5090;51.258;4.436;2023-12-20T06:43:16;19.40;;;5.17;;
10100;SDS011;5090;51.258;4.436;2023-12-20T06:45:44;17.13;;;3.83;;
10100;SDS011;5090;51.258;4.436;2023-12-20T06:48:12;21.13;;;3.93;;
10100;SDS011;5090;51.258;4.436;2023-12-20T06:50:40;24.10;;;4.40;;
10100;SDS011;5090;51.258;4.436;2023-12-20T06:53:09;13.60;;;4.73;;
10100;SDS011;5090;51.258;4.436;2023-12-20T06:55:37;24.73;;;3.70;;
10100;SDS011;5090;51.258;4.436;2023-12-20T06:58:06;18.03;;;3.73;;
10100;SDS011;5090;51.258;4.436;2023-12-20T07:00:34;16.40;;;3.43;;
10100;SDS011;5090;51.258;4.436;2023-12-20T07:03:05;13.60;;;3.80;;
10100;SDS011;5090;51.258;4.436;2023-12-20T07:05:33;22.10;;;3.93;;
10100;SDS011;5090;51.258;4.436;2023-12-20T07:08:01;22.20;;;3.23;;
10100;SDS011;5090;51.258;4.436;2023-12-20T07:10:30;12.80;;;3.43;;
10100;SDS011;5090;51.258;4.436;2023-12-20T07:12:58;19.47;;;3.93;;
10100;SDS011;5090;51.258;4.436;2023-12-20T07:15:26;12.30;;;3.33;;
10100;SDS011;5090;51.258;4.436;2023-12-20T07:17:54;18.87;;;3.80;;
10100;SDS011;5090;51.258;4.436;2023-12-20T07:20:22;18.30;;;5.10;;
10100;SDS011;5090;51.258;4.436;2023-12-20T07:22:51;17.17;;;4.00;;
10100;SDS011;5090;51.258;4.436;2023-12-20T07:25:19;23.33;;;4.03;;
10100;SDS011;5090;51.258;4.436;2023-12-20T07:27:47;18.80;;;4.77;;
10100;SDS011;5090;51.258;4.436;2023-12-20T07:30:15;10.43;;;3.00;;
10100;SDS011;5090;51.258;4.436;2023-12-20T07:32:43;14.00;;;3.50;;
10100;SDS011;5090;51.258;4.436;2023-12-20T07:35:12;11.17;;;3.43;;
10100;SDS011;5090;51.258;4.436;2023-12-20T07:37:40;9.47;;;2.93;;
10100;SDS011;5090;51.258;4.436;2023-12-20T07:40:08;18.23;;;3.93;;
10100;SDS011;5090;51.258;4.436;2023-12-20T07:42:36;20.47;;;3.73;;
10100;SDS011;5090;51.258;4.436;2023-12-20T07:45:05;19.10;;;3.30;;
10100;SDS011;5090;51.258;4.436;2023-12-20T07:47:33;12.37;;;3.50;;
10100;SDS011;5090;51.258;4.436;2023-12-20T07:50:01;16.37;;;3.07;;
10100;SDS011;5090;51.258;4.436;2023-12-20T07:52:29;15.20;;;3.33;;
10100;SDS011;5090;51.258;4.436;2023-12-20T07:54:57;13.70;;;3.87;;
10100;SDS011;5090;51.258;4.436;2023-12-20T07:57:28;14.80;;;3.17;;
10100;SDS011;5090;51.258;4.436;2023-12-20T07:59:54;12.80;;;3.30;;
10100;SDS011;5090;51.258;4.436;2023-12-20T08:02:23;19.60;;;4.00;;
10100;SDS011;5090;51.258;4.436;2023-12-20T08:04:51;17.80;;;3.50;;
10100;SDS011;5090;51.258;4.436;2023-12-20T08:07:19;19.10;;;3.90;;
10100;SDS011;5090;51.258;4.436;2023-12-20T08:09:47;23.17;;;3.57;;
10100;SDS011;5090;51.258;4.436;2023-12-20T08:12:15;13.40;;;3.37;;
10100;SDS011;5090;51.258;4.436;2023-12-20T08:14:44;10.40;;;3.30;;
10100;SDS011;5090;51.258;4.436;2023-12-20T08:17:12;15.70;;;3.60;;
10100;SDS011;5090;51.258;4.436;2023-12-20T08:19:40;21.10;;;3.80;;
10100;SDS011;5090;51.258;4.436;2023-12-20T08:22:08;12.50;;;3.47;;
10100;SDS011;5090;51.258;4.436;2023-12-20T08:24:36;17.83;;;3.23;;
10100;SDS011;5090;51.258;4.436;2023-12-20T08:27:05;17.50;;;3.63;;
10100;SDS011;5090;51.258;4.436;2023-12-20T08:29:33;14.90;;;3.17;;
10100;SDS011;5090;51.258;4.436;2023-12-20T08:32:01;12.23;;;3.10;;
10100;SDS011;5090;51.258;4.436;2023-12-20T08:34:29;16.67;;;3.30;;
10100;SDS011;5090;51.258;4.436;2023-12-20T08:36:57;16.50;;;3.23;;
10100;SDS011;5090;51.258;4.436;2023-12-20T08:39:26;19.30;;;3.80;;
10100;SDS011;5090;51.258;4.436;2023-12-20T08:41:54;11.43;;;3.53;;
10100;SDS011;5090;51.258;4.436;2023-12-20T08:44:22;15.90;;;2.70;;
10100;SDS011;5090;51.258;4.436;2023-12-20T08:46:50;12.33;;;3.93;;
10100;SDS011;5090;51.258;4.436;2023-12-20T08:49:18;15.27;;;3.30;;
10100;SDS011;5090;51.258;4.436;2023-12-20T08:51:47;12.73;;;3.50;;
10100;SDS011;5090;51.258;4.436;2023-12-20T08:54:15;13.87;;;3.63;;
10100;SDS011;5090;51.258;4.436;2023-12-20T08:56:43;16.10;;;3.77;;
10100;SDS011;5090;51.258;4.436;2023-12-20T08:59:11;14.37;;;3.27;;
10100;SDS011;5090;51.258;4.436;2023-12-20T09:01:39;15.63;;;3.63;;
10100;SDS011;5090;51.258;4.436;2023-12-20T09:04:07;11.83;;;3.00;;
10100;SDS011;5090;51.258;4.436;2023-12-20T09:06:36;15.10;;;3.17;;
10100;SDS011;5090;51.258;4.436;2023-12-20T09:09:04;13.40;;;2.70;;
10100;SDS011;5090;51.258;4.436;2023-12-20T09:11:32;15.13;;;3.87;;
10100;SDS011;5090;51.258;4.436;2023-12-20T09:14:00;13.23;;;3.63;;
10100;SDS011;5090;51.258;4.436;2023-12-20T09:16:28;13.80;;;3.80;;
10100;SDS011;5090;51.258;4.436;2023-12-20T09:18:57;11.50;;;3.43;;
10100;SDS011;5090;51.258;4.436;2023-12-20T09:21:25;17.97;;;3.43;;
10100;SDS011;5090;51.258;4.436;2023-12-20T09:23:53;13.50;;;3.30;;
10100;SDS011;5090;51.258;4.436;2023-12-20T09:26:21;12.67;;;2.93;;
10100;SDS011;5090;51.258;4.436;2023-12-20T09:28:49;14.73;;;3.80;;
10100;SDS011;5090;51.258;4.436;2023-12-20T09:31:17;13.23;;;3.33;;
10100;SDS011;5090;51.258;4.436;2023-12-20T09:33:46;18.37;;;3.60;;
10100;SDS011;5090;51.258;4.436;2023-12-20T09:36:14;12.93;;;3.93;;
10100;SDS011;5090;51.258;4.436;2023-12-20T09:38:42;15.87;;;3.73;;
10100;SDS011;5090;51.258;4.436;2023-12-20T09:41:11;12.53;;;3.13;;
10100;SDS011;5090;51.258;4.436;2023-12-20T09:43:39;16.70;;;3.17;;
10100;SDS011;5090;51.258;4.436;2023-12-20T09:46:07;18.50;;;4.50;;
10100;SDS011;5090;51.258;4.436;2023-12-20T09:48:35;14.37;;;3.93;;
10100;SDS011;5090;51.258;4.436;2023-12-20T09:51:03;15.40;;;3.90;;
10100;SDS011;5090;51.258;4.436;2023-12-20T09:53:32;14.37;;;3.37;;
10100;SDS011;5090;51.258;4.436;2023-12-20T09:56:00;11.97;;;3.60;;
10100;SDS011;5090;51.258;4.436;2023-12-20T09:58:29;11.57;;;2.97;;
10100;SDS011;5090;51.258;4.436;2023-12-20T10:00:57;11.13;;;3.00;;
10100;SDS011;5090;51.258;4.436;2023-12-20T10:03:25;13.77;;;3.60;;
10100;SDS011;5090;51.258;4.436;2023-12-20T10:05:55;16.10;;;3.67;;
10100;SDS011;5090;51.258;4.436;2023-12-20T10:08:22;9.60;;;4.17;;
10100;SDS011;5090;51.258;4.436;2023-12-20T10:10:50;19.23;;;3.97;;
10100;SDS011;5090;51.258;4.436;2023-12-20T10:13:19;15.33;;;3.53;;
10100;SDS011;5090;51.258;4.436;2023-12-20T10:15:47;12.20;;;3.07;;
10100;SDS011;5090;51.258;4.436;2023-12-20T10:18:15;13.17;;;3.40;;
10100;SDS011;5090;51.258;4.436;2023-12-20T10:20:43;14.10;;;3.00;;
10100;SDS011;5090;51.258;4.436;2023-12-20T10:23:11;12.50;;;3.13;;
10100;SDS011;5090;51.258;4.436;2023-12-20T10:25:40;21.97;;;4.17;;
10100;SDS011;5090;51.258;4.436;2023-12-20T10:28:09;11.33;;;3.23;;
10100;SDS011;5090;51.258;4.436;2023-12-20T10:30:37;15.27;;;3.50;;
10100;SDS011;5090;51.258;4.436;2023-12-20T10:33:06;15.97;;;3.43;;
10100;SDS011;5090;51.258;4.436;2023-12-20T10:35:34;18.93;;;4.37;;
10100;SDS011;5090;51.258;4.436;2023-12-20T10:38:03;13.53;;;3.33;;
10100;SDS011;5090;51.258;4.436;2023-12-20T10:40:31;15.47;;;3.43;;
10100;SDS011;5090;51.258;4.436;2023-12-20T10:42:59;12.77;;;3.03;;
10100;SDS011;5090;51.258;4.436;2023-12-20T10:45:27;19.23;;;3.57;;
10100;SDS011;5090;51.258;4.436;2023-12-20T10:47:55;10.50;;;3.03;;
10100;SDS011;5090;51.258;4.436;2023-12-20T10:50:23;11.10;;;2.70;;
10100;SDS011;5090;51.258;4.436;2023-12-20T10:52:51;10.13;;;3.20;;
10100;SDS011;5090;51.258;4.436;2023-12-20T10:55:21;19.10;;;3.97;;
10100;SDS011;5090;51.258;4.436;2023-12-20T10:57:49;12.70;;;3.10;;
10100;SDS011;5090;51.258;4.436;2023-12-20T11:00:17;16.30;;;3.40;;
10100;SDS011;5090;51.258;4.436;2023-12-20T11:02:45;10.97;;;3.50;;
10100;SDS011;5090;51.258;4.436;2023-12-20T11:05:30;7.70;;;2.63;;
10100;SDS011;5090;51.258;4.436;2023-12-20T11:07:59;14.07;;;3.43;;
10100;SDS011;5090;51.258;4.436;2023-12-20T11:10:26;16.03;;;4.23;;
10100;SDS011;5090;51.258;4.436;2023-12-20T11:12:57;14.50;;;3.10;;
10100;SDS011;5090;51.258;4.436;2023-12-20T11:15:23;14.67;;;3.17;;
10100;SDS011;5090;51.258;4.436;2023-12-20T11:17:54;15.07;;;3.47;;
10100;SDS011;5090;51.258;4.436;2023-12-20T11:20:21;15.47;;;3.93;;
10100;SDS011;5090;51.258;4.436;2023-12-20T11:22:53;14.63;;;3.23;;
10100;SDS011;5090;51.258;4.436;2023-12-20T11:25:20;9.23;;;2.77;;
10100;SDS011;5090;51.258;4.436;2023-12-20T11:28:06;10.10;;;2.90;;
10100;SDS011;5090;51.258;4.436;2023-12-20T11:30:17;14.27;;;3.47;;
10100;SDS011;5090;51.258;4.436;2023-12-20T11:32:45;12.70;;;3.20;;
10100;SDS011;5090;51.258;4.436;2023-12-20T11:35:17;15.33;;;2.87;;
10100;SDS011;5090;51.258;4.436;2023-12-20T11:37:44;11.50;;;2.90;;
10100;SDS011;5090;51.258;4.436;2023-12-20T11:40:14;12.37;;;2.83;;
10100;SDS011;5090;51.258;4.436;2023-12-20T11:42:42;16.73;;;3.37;;
10100;SDS011;5090;51.258;4.436;2023-12-20T11:45:13;12.60;;;3.40;;
10100;SDS011;5090;51.258;4.436;2023-12-20T11:47:39;11.37;;;3.20;;
10100;SDS011;5090;51.258;4.436;2023-12-20T11:50:07;13.93;;;3.47;;
10100;SDS011;5090;51.258;4.436;2023-12-20T11:52:36;10.80;;;3.10;;
10100;SDS011;5090;51.258;4.436;2023-12-20T11:55:04;15.03;;;2.87;;
10100;SDS011;5090;51.258;4.436;2023-12-20T11:57:33;12.50;;;3.97;;
10100;SDS011;5090;51.258;4.436;2023-12-20T12:00:00;10.57;;;3.30;;
10100;SDS011;5090;51.258;4.436;2023-12-20T12:02:29;16.80;;;3.67;;
10100;SDS011;5090;51.258;4.436;2023-12-20T12:04:57;15.87;;;3.47;;
10100;SDS011;5090;51.258;4.436;2023-12-20T12:07:25;12.37;;;3.57;;
10100;SDS011;5090;51.258;4.436;2023-12-20T12:09:53;14.80;;;3.27;;
10100;SDS011;5090;51.258;4.436;2023-12-20T12:12:21;15.67;;;3.33;;
10100;SDS011;5090;51.258;4.436;2023-12-20T12:14:49;15.43;;;3.70;;
10100;SDS011;5090;51.258;4.436;2023-12-20T12:17:18;13.53;;;3.97;;
10100;SDS011;5090;51.258;4.436;2023-12-20T12:19:46;10.80;;;3.30;;
10100;SDS011;5090;51.258;4.436;2023-12-20T12:22:14;18.47;;;3.90;;
10100;SDS011;5090;51.258;4.436;2023-12-20T12:24:43;10.73;;;3.07;;
10100;SDS011;5090;51.258;4.436;2023-12-20T12:27:11;12.10;;;3.10;;
10100;SDS011;5090;51.258;4.436;2023-12-20T12:29:39;13.00;;;3.30;;
10100;SDS011;5090;51.258;4.436;2023-12-20T12:32:07;20.33;;;4.20;;
10100;SDS011;5090;51.258;4.436;2023-12-20T12:34:35;13.37;;;3.17;;
10100;SDS011;5090;51.258;4.436;2023-12-20T12:37:03;13.60;;;2.90;;
10100;SDS011;5090;51.258;4.436;2023-12-20T12:39:31;11.80;;;3.87;;
10100;SDS011;5090;51.258;4.436;2023-12-20T12:41:59;18.03;;;3.17;;
10100;SDS011;5090;51.258;4.436;2023-12-20T12:44:28;14.47;;;3.53;;
10100;SDS011;5090;51.258;4.436;2023-12-20T12:46:57;13.57;;;3.57;;
10100;SDS011;5090;51.258;4.436;2023-12-20T12:49:25;14.77;;;3.13;;
10100;SDS011;5090;51.258;4.436;2023-12-20T12:51:53;13.17;;;3.13;;
10100;SDS011;5090;51.258;4.436;2023-12-20T12:54:21;14.47;;;3.50;;
10100;SDS011;5090;51.258;4.436;2023-12-20T12:56:49;13.83;;;3.40;;
10100;SDS011;5090;51.258;4.436;2023-12-20T12:59:17;13.83;;;3.50;;
10100;SDS011;5090;51.258;4.436;2023-12-20T13:01:46;14.07;;;3.87;;
10100;SDS011;5090;51.258;4.436;2023-12-20T13:04:14;13.63;;;3.03;;
10100;SDS011;5090;51.258;4.436;2023-12-20T13:06:42;13.17;;;3.27;;
10100;SDS011;5090;51.258;4.436;2023-12-20T13:09:10;16.27;;;3.73;;
10100;SDS011;5090;51.258;4.436;2023-12-20T13:11:38;15.20;;;3.57;;
10100;SDS011;5090;51.258;4.436;2023-12-20T13:14:07;17.30;;;3.90;;
10100;SDS011;5090;51.258;4.436;2023-12-20T13:16:35;14.80;;;3.33;;
10100;SDS011;5090;51.258;4.436;2023-12-20T13:19:03;13.77;;;3.03;;
10100;SDS011;5090;51.258;4.436;2023-12-20T13:21:31;15.43;;;3.73;;
10100;SDS011;5090;51.258;4.436;2023-12-20T13:23:59;26.50;;;3.60;;
10100;SDS011;5090;51.258;4.436;2023-12-20T13:26:27;13.17;;;3.53;;
10100;SDS011;5090;51.258;4.436;2023-12-20T13:28:56;14.97;;;3.30;;
10100;SDS011;5090;51.258;4.436;2023-12-20T13:31:24;13.77;;;3.23;;
10100;SDS011;5090;51.258;4.436;2023-12-20T13:33:52;19.60;;;3.97;;
10100;SDS011;5090;51.258;4.436;2023-12-20T13:36:20;16.87;;;3.60;;
10100;SDS011;5090;51.258;4.436;2023-12-20T13:38:48;15.43;;;3.83;;
10100;SDS011;5090;51.258;4.436;2023-12-20T13:41:16;15.70;;;3.57;;
10100;SDS011;5090;51.258;4.436;2023-12-20T13:43:45;18.33;;;3.90;;
10100;SDS011;5090;51.258;4.436;2023-12-20T13:46:13;13.63;;;3.57;;
10100;SDS011;5090;51.258;4.436;2023-12-20T13:48:41;14.00;;;3.10;;
10100;SDS011;5090;51.258;4.436;2023-12-20T13:51:13;12.80;;;3.03;;
10100;SDS011;5090;51.258;4.436;2023-12-20T13:53:41;9.80;;;3.37;;
10100;SDS011;5090;51.258;4.436;2023-12-20T13:56:10;16.10;;;3.10;;
10100;SDS011;5090;51.258;4.436;2023-12-20T13:58:38;13.37;;;3.47;;
10100;SDS011;5090;51.258;4.436;2023-12-20T14:01:06;15.50;;;3.47;;
10100;SDS011;5090;51.258;4.436;2023-12-20T14:03:34;14.90;;;3.63;;
10100;SDS011;5090;51.258;4.436;2023-12-20T14:06:02;11.17;;;3.23;;
10100;SDS011;5090;51.258;4.436;2023-12-20T14:08:31;11.57;;;3.23;;
10100;SDS011;5090;51.258;4.436;2023-12-20T14:10:59;18.27;;;3.40;;
10100;SDS011;5090;51.258;4.436;2023-12-20T14:13:27;13.93;;;3.13;;
10100;SDS011;5090;51.258;4.436;2023-12-20T14:15:55;10.53;;;3.63;;
10100;SDS011;5090;51.258;4.436;2023-12-20T14:18:23;15.63;;;3.77;;
10100;SDS011;5090;51.258;4.436;2023-12-20T14:20:51;11.33;;;3.77;;
10100;SDS011;5090;51.258;4.436;2023-12-20T14:23:20;13.73;;;3.23;;
10100;SDS011;5090;51.258;4.436;2023-12-20T14:25:48;16.77;;;3.47;;
10100;SDS011;5090;51.258;4.436;2023-12-20T14:28:16;11.57;;;3.07;;
10100;SDS011;5090;51.258;4.436;2023-12-20T14:30:44;15.30;;;3.13;;
10100;SDS011;5090;51.258;4.436;2023-12-20T14:33:12;13.00;;;3.30;;
10100;SDS011;5090;51.258;4.436;2023-12-20T14:35:41;15.27;;;3.20;;
10100;SDS011;5090;51.258;4.436;2023-12-20T14:38:09;15.97;;;3.83;;
10100;SDS011;5090;51.258;4.436;2023-12-20T14:40:37;12.17;;;3.30;;
10100;SDS011;5090;51.258;4.436;2023-12-20T14:43:05;11.57;;;3.33;;
10100;SDS011;5090;51.258;4.436;2023-12-20T14:45:33;11.70;;;3.40;;
10100;SDS011;5090;51.258;4.436;2023-12-20T14:48:01;19.37;;;4.07;;
10100;SDS011;5090;51.258;4.436;2023-12-20T14:50:30;13.27;;;3.70;;
10100;SDS011;5090;51.258;4.436;2023-12-20T14:52:58;14.03;;;3.07;;
10100;SDS011;5090;51.258;4.436;2023-12-20T14:55:26;11.10;;;3.57;;
10100;SDS011;5090;51.258;4.436;2023-12-20T14:57:54;11.77;;;3.23;;
10100;SDS011;5090;51.258;4.436;2023-12-20T15:00:22;13.73;;;3.53;;